Vicki Ann — WYE3508 — position and weather

sailwx.info

Track history (hours):
 
Tides and Currents Weather Stations Pressure Air Temp Water Temp Dewpoint Dewpoint Depression Visibility Wind Speed Wind Dir Waves Ship Positions

Vicki Ann

Owner: JANKOVICH, TOM J, SAN PEDRO, CA. More information available from US FCC via Universal Licensing System and Coast Guard Vessel Documentation Center.

Last reported at 2017-Sep-25 15:00 UTC. Time now 2017-Sep-25 15:05 UTC.
Position N 33°43' W 118°15'.

MMSI: 367006790.

Date/timePositionNaut miles runAvg speedWind from/ knotsBaromVisibWave heightAir tempDewpointWater temp
2017-Sep-25 15:00N 33°43' W 118°15'1 2.7
2017-Sep-25 14:30N 33°44' W 118°14'2 3.9
2017-Sep-25 14:00N 33°43' W 118°16'0 0.9
2017-Sep-25 13:30N 33°44' W 118°17'0 0.0
2017-Sep-25 06:44N 33°44' W 118°17'0 0.0
2017-Sep-24 19:35N 33°44' W 118°16'0 0.0
2017-Sep-24 19:30N 33°44' W 118°16'0 0.4
2017-Sep-24 18:57N 33°44' W 118°16'0 0.0
2017-Sep-24 18:30N 33°44' W 118°16'0 0.0
2017-Sep-24 18:00N 33°44' W 118°16'0 0.0
2017-Sep-24 17:31N 33°44' W 118°16'0 0.0
2017-Sep-24 17:00N 33°44' W 118°16'0 0.0
2017-Sep-24 16:29N 33°44' W 118°16'0 0.0
2017-Sep-24 15:59N 33°44' W 118°16'0 0.0
2017-Sep-24 15:28N 33°44' W 118°16'0 0.0
2017-Sep-24 15:00N 33°44' W 118°16'0 0.0
2017-Sep-24 14:30N 33°44' W 118°16'0 0.0
2017-Sep-24 14:00N 33°44' W 118°16'0 0.5
2017-Sep-24 13:30N 33°44' W 118°16'0 0.0
2017-Sep-23 21:53N 33°44' W 118°16'1 3.6
2017-Sep-23 21:29N 33°45' W 118°16'0 0.9
2017-Sep-23 20:57N 33°45' W 118°16'0 0.0
2017-Sep-23 20:30N 33°45' W 118°16'0 0.0
2017-Sep-23 20:00N 33°45' W 118°16'3 0.1
2017-Sep-22 02:00N 33°43' W 118°15'4 0.9
2017-Sep-21 21:33N 33°44' W 118°10'0 4.6
2017-Sep-21 21:29N 33°44' W 118°10'4 8.2
2017-Sep-21 21:00N 33°43' W 118°15'2 3.2
2017-Sep-21 20:29N 33°44' W 118°17'2 4.2
2017-Sep-21 19:58N 33°43' W 118°14'0 0.2
2017-Sep-21 19:27N 33°43' W 118°14'2 4.2
2017-Sep-21 18:58N 33°44' W 118°17'0 0.0
2017-Sep-21 18:30N 33°44' W 118°17'0 0.0
2017-Sep-21 18:00N 33°44' W 118°17'0 0.0
2017-Sep-21 17:30N 33°44' W 118°17'0 0.0
2017-Sep-21 17:00N 33°44' W 118°17'0 0.0
2017-Sep-21 16:29N 33°44' W 118°17'0 0.0
2017-Sep-21 16:00N 33°44' W 118°17'1 1.9
2017-Sep-21 15:24N 33°43' W 118°15'2 1.1
2017-Sep-21 14:00N 33°43' W 118°14'2 4.6
2017-Sep-21 13:28N 33°44' W 118°17'0 0.1
2017-Sep-21 12:46N 33°44' W 118°16'0 0.0
2017-Sep-21 12:26N 33°44' W 118°16'2 4.0
2017-Sep-21 11:50N 33°43' W 118°14'2 5.9
2017-Sep-21 11:30N 33°45' W 118°12'0 0.2
2017-Sep-21 11:00N 33°45' W 118°12'0 0.0
2017-Sep-21 10:29N 33°45' W 118°12'0 0.0
2017-Sep-21 10:00N 33°45' W 118°12'0 0.0
2017-Sep-21 09:30N 33°45' W 118°12'2 0.3
2017-Sep-21 01:23N 33°44' W 118°09'1 1.6
2017-Sep-21 00:51N 33°44' W 118°10'2 5.2
2017-Sep-21 00:29N 33°44' W 118°13'1 2.3
2017-Sep-21 00:00N 33°43' W 118°14'2 4.7
2017-Sep-20 23:30N 33°44' W 118°17'0 0.0
2017-Sep-20 23:00N 33°44' W 118°17'0 0.2
2017-Sep-20 21:53N 33°44' W 118°16'2 6.0
2017-Sep-20 21:30N 33°44' W 118°14'0 0.7
2017-Sep-20 21:00N 33°44' W 118°13'0 0.0
2017-Sep-20 20:30N 33°44' W 118°13'0 0.1
2017-Sep-20 19:59N 33°44' W 118°13'1 1.6
2017-Sep-20 19:30N 33°45' W 118°13'1 3.0
2017-Sep-20 19:00N 33°46' W 118°14'0 0.1
2017-Sep-20 18:30N 33°46' W 118°14'0 0.0
2017-Sep-20 18:00N 33°46' W 118°14'0 0.0
2017-Sep-20 17:30N 33°46' W 118°14'0 0.0
2017-Sep-20 17:00N 33°46' W 118°14'0 0.0
2017-Sep-20 16:30N 33°46' W 118°14'0 0.0
2017-Sep-20 15:59N 33°46' W 118°14'0 0.0
2017-Sep-20 15:30N 33°46' W 118°14'1 2.3
2017-Sep-20 14:55N 33°45' W 118°13'3 0.2
2017-Sep-19 20:05N 33°44' W 118°16'0 0.2
2017-Sep-19 19:59N 33°44' W 118°16'0 0.6
2017-Sep-19 19:29N 33°44' W 118°16'0 0.0
2017-Sep-19 19:00N 33°44' W 118°16'0 0.0
2017-Sep-19 18:28N 33°44' W 118°16'0 0.0
2017-Sep-19 17:59N 33°44' W 118°16'0 0.0
2017-Sep-19 17:30N 33°44' W 118°16'0 0.0
2017-Sep-19 16:58N 33°44' W 118°16'0 0.0
2017-Sep-19 16:30N 33°44' W 118°16'0 0.0
2017-Sep-19 15:59N 33°44' W 118°16'0 0.0
2017-Sep-19 15:26N 33°44' W 118°16'3 0.2
2017-Sep-19 00:15N 33°45' W 118°12'0 0.0
2017-Sep-18 23:57N 33°45' W 118°12'0 0.0
2017-Sep-18 21:47N 33°45' W 118°12'0 0.0
2017-Sep-18 21:29N 33°45' W 118°12'0 0.8
2017-Sep-18 21:00N 33°45' W 118°12'2 3.1
2017-Sep-18 20:30N 33°46' W 118°13'1 2.3
2017-Sep-18 20:00N 33°46' W 118°15'3 5.4
2017-Sep-18 19:30N 33°44' W 118°17'1 0.9
2017-Sep-18 18:56N 33°43' W 118°16'1 1.4
2017-Sep-18 18:30N 33°44' W 118°16'0 1.0
2017-Sep-18 18:00N 33°44' W 118°17'2 4.8
2017-Sep-18 17:30N 33°46' W 118°15'2 3.3
2017-Sep-18 16:58N 33°46' W 118°13'1 2.6
2017-Sep-18 16:29N 33°45' W 118°13'3 4.9
2017-Sep-18 15:55N 33°43' W 118°15'2 3.7
2017-Sep-18 15:30N 33°44' W 118°17'0 0.1
2017-Sep-18 14:58N 33°44' W 118°16'0 0.1
2017-Sep-18 14:30N 33°44' W 118°16'2 3.9
2017-Sep-18 13:58N 33°43' W 118°14'0 0.0
2017-Sep-18 09:35N 33°43' W 118°14'2 1.7
2017-Sep-18 08:21N 33°44' W 118°16'1 3.4
2017-Sep-18 08:00N 33°43' W 118°16'5 4.9
2017-Sep-18 07:06N 33°44' W 118°10'1 5.0
2017-Sep-18 06:51N 33°44' W 118°12'3 8.9
2017-Sep-18 06:30N 33°43' W 118°15'1 1.6
2017-Sep-18 05:48N 33°43' W 118°14'2 3.6
2017-Sep-18 05:20N 33°44' W 118°12'3 6.2
2017-Sep-18 04:50N 33°43' W 118°16'0 0.4
2017-Sep-18 04:22N 33°43' W 118°16'4 4.4
2017-Sep-18 03:25N 33°44' W 118°11'3 5.3
2017-Sep-18 02:47N 33°43' W 118°15'1 5.0
2017-Sep-18 02:30N 33°44' W 118°16'0 0.1
2017-Sep-18 00:13N 33°44' W 118°16'0 1.6
2017-Sep-18 00:00N 33°43' W 118°16'3 6.4
2017-Sep-17 23:30N 33°44' W 118°12'1 0.2
2017-Sep-17 18:48N 33°44' W 118°12'4 7.4
2017-Sep-17 18:18N 33°43' W 118°16'1 2.7
2017-Sep-17 18:00N 33°44' W 118°16'1 2.9
2017-Sep-17 17:30N 33°45' W 118°16'0 0.4
2017-Sep-17 16:58N 33°45' W 118°16'0 0.0
2017-Sep-17 16:27N 33°45' W 118°16'0 0.0
2017-Sep-17 16:00N 33°45' W 118°16'2 2.5
2017-Sep-17 15:22N 33°44' W 118°17'0 0.0
2017-Sep-17 15:00N 33°44' W 118°17'0 0.0
2017-Sep-17 14:26N 33°44' W 118°17'0 0.0
2017-Sep-17 13:51N 33°44' W 118°17'0 0.0
2017-Sep-17 13:16N 33°44' W 118°17'1 1.5
2017-Sep-17 12:20N 33°45' W 118°16'1 0.2
2017-Sep-17 04:58N 33°44' W 118°17'1 2.3
2017-Sep-17 04:30N 33°43' W 118°16'3 5.1
2017-Sep-17 03:59N 33°44' W 118°13'0 0.3
2017-Sep-17 03:28N 33°44' W 118°13'3 6.1
2017-Sep-17 02:58N 33°44' W 118°17'0 0.0
2017-Sep-17 02:28N 33°44' W 118°17'0 0.0
2017-Sep-17 01:58N 33°44' W 118°17'0 0.0
2017-Sep-17 01:25N 33°44' W 118°17'0 0.0
2017-Sep-17 01:00N 33°44' W 118°17'0 0.0
2017-Sep-17 00:29N 33°44' W 118°17'0 0.0
2017-Sep-17 00:00N 33°44' W 118°17'0 0.0
2017-Sep-16 23:31N 33°44' W 118°17'0 0.0
2017-Sep-16 22:58N 33°44' W 118°17'0 1.0
2017-Sep-16 22:30N 33°44' W 118°17'1 2.4
2017-Sep-16 21:54N 33°45' W 118°16'0 0.0
2017-Sep-16 21:29N 33°45' W 118°16'2 4.5
2017-Sep-16 21:00N 33°43' W 118°16'3 5.8
2017-Sep-16 20:30N 33°44' W 118°13'0 0.0
2017-Sep-16 19:57N 33°44' W 118°13'2 4.1
2017-Sep-16 19:30N 33°43' W 118°15'1 2.2
2017-Sep-16 19:00N 33°44' W 118°15'0 0.0
2017-Sep-16 18:25N 33°44' W 118°15'0 0.0
2017-Sep-16 18:00N 33°44' W 118°15'0 0.0
2017-Sep-16 17:30N 33°44' W 118°15'1 2.0
2017-Sep-16 17:00N 33°43' W 118°16'1 1.8
2017-Sep-16 16:27N 33°44' W 118°15'0 0.0
2017-Sep-16 16:00N 33°44' W 118°15'1 1.7
2017-Sep-16 15:24N 33°43' W 118°16'0 0.0
2017-Sep-16 02:16N 33°44' W 118°17'1 2.7
2017-Sep-16 01:59N 33°44' W 118°17'0 0.9
2017-Sep-16 01:30N 33°45' W 118°16'1 2.2
2017-Sep-16 00:58N 33°44' W 118°16'2 4.8
2017-Sep-16 00:30N 33°43' W 118°14'2 1.4
2017-Sep-15 22:48N 33°44' W 118°11'3 8.5
2017-Sep-15 22:29N 33°43' W 118°14'2 4.4
2017-Sep-15 21:59N 33°44' W 118°17'0 0.1
2017-Sep-15 21:30N 33°44' W 118°17'0 0.1
2017-Sep-15 21:00N 33°44' W 118°16'1 1.6
2017-Sep-15 20:30N 33°45' W 118°17'2 4.2
2017-Sep-15 19:57N 33°43' W 118°14'2 5.0
2017-Sep-15 19:28N 33°44' W 118°12'0 0.9
2017-Sep-15 18:57N 33°45' W 118°12'3 7.1
2017-Sep-15 18:29N 33°43' W 118°15'2 3.3
2017-Sep-15 18:00N 33°44' W 118°17'0 0.0
2017-Sep-15 17:30N 33°44' W 118°17'0 0.1
2017-Sep-15 16:58N 33°44' W 118°16'0 0.1
2017-Sep-15 16:30N 33°44' W 118°17'0 0.0
2017-Sep-15 16:00N 33°44' W 118°17'1 1.2
2017-Sep-15 15:30N 33°43' W 118°16'  
Track history (hours):
 
Tides and Currents Weather Stations Pressure Air Temp Water Temp Dewpoint Dewpoint Depression Visibility Wind Speed Wind Dir Waves Ship Positions

Vicki Ann

Owner: JANKOVICH, TOM J, SAN PEDRO, CA. More information available from US FCC via Universal Licensing System and Coast Guard Vessel Documentation Center.

Last reported at 2017-Sep-25 15:00 UTC. Time now 2017-Sep-25 15:05 UTC.
Position N 33°43' W 118°15'.

MMSI: 367006790.

Date/timePositionNaut miles runAvg speedWind from/ knotsBaromVisibWave heightAir tempDewpointWater temp
2017-Sep-25 15:00N 33°43' W 118°15'1 2.7
2017-Sep-25 14:30N 33°44' W 118°14'2 3.9
2017-Sep-25 14:00N 33°43' W 118°16'0 0.9
2017-Sep-25 13:30N 33°44' W 118°17'0 0.0
2017-Sep-25 06:44N 33°44' W 118°17'0 0.0
2017-Sep-24 19:35N 33°44' W 118°16'0 0.0
2017-Sep-24 19:30N 33°44' W 118°16'0 0.4
2017-Sep-24 18:57N 33°44' W 118°16'0 0.0
2017-Sep-24 18:30N 33°44' W 118°16'0 0.0
2017-Sep-24 18:00N 33°44' W 118°16'0 0.0
2017-Sep-24 17:31N 33°44' W 118°16'0 0.0
2017-Sep-24 17:00N 33°44' W 118°16'0 0.0
2017-Sep-24 16:29N 33°44' W 118°16'0 0.0
2017-Sep-24 15:59N 33°44' W 118°16'0 0.0
2017-Sep-24 15:28N 33°44' W 118°16'0 0.0
2017-Sep-24 15:00N 33°44' W 118°16'0 0.0
2017-Sep-24 14:30N 33°44' W 118°16'0 0.0
2017-Sep-24 14:00N 33°44' W 118°16'0 0.5
2017-Sep-24 13:30N 33°44' W 118°16'0 0.0
2017-Sep-23 21:53N 33°44' W 118°16'1 3.6
2017-Sep-23 21:29N 33°45' W 118°16'0 0.9
2017-Sep-23 20:57N 33°45' W 118°16'0 0.0
2017-Sep-23 20:30N 33°45' W 118°16'0 0.0
2017-Sep-23 20:00N 33°45' W 118°16'3 0.1
2017-Sep-22 02:00N 33°43' W 118°15'4 0.9
2017-Sep-21 21:33N 33°44' W 118°10'0 4.6
2017-Sep-21 21:29N 33°44' W 118°10'4 8.2
2017-Sep-21 21:00N 33°43' W 118°15'2 3.2
2017-Sep-21 20:29N 33°44' W 118°17'2 4.2
2017-Sep-21 19:58N 33°43' W 118°14'0 0.2
2017-Sep-21 19:27N 33°43' W 118°14'2 4.2
2017-Sep-21 18:58N 33°44' W 118°17'0 0.0
2017-Sep-21 18:30N 33°44' W 118°17'0 0.0
2017-Sep-21 18:00N 33°44' W 118°17'0 0.0
2017-Sep-21 17:30N 33°44' W 118°17'0 0.0
2017-Sep-21 17:00N 33°44' W 118°17'0 0.0
2017-Sep-21 16:29N 33°44' W 118°17'0 0.0
2017-Sep-21 16:00N 33°44' W 118°17'1 1.9
2017-Sep-21 15:24N 33°43' W 118°15'2 1.1
2017-Sep-21 14:00N 33°43' W 118°14'2 4.6
2017-Sep-21 13:28N 33°44' W 118°17'0 0.1
2017-Sep-21 12:46N 33°44' W 118°16'0 0.0
2017-Sep-21 12:26N 33°44' W 118°16'2 4.0
2017-Sep-21 11:50N 33°43' W 118°14'2 5.9
2017-Sep-21 11:30N 33°45' W 118°12'0 0.2
2017-Sep-21 11:00N 33°45' W 118°12'0 0.0
2017-Sep-21 10:29N 33°45' W 118°12'0 0.0
2017-Sep-21 10:00N 33°45' W 118°12'0 0.0
2017-Sep-21 09:30N 33°45' W 118°12'2 0.3
2017-Sep-21 01:23N 33°44' W 118°09'1 1.6
2017-Sep-21 00:51N 33°44' W 118°10'2 5.2
2017-Sep-21 00:29N 33°44' W 118°13'1 2.3
2017-Sep-21 00:00N 33°43' W 118°14'2 4.7
2017-Sep-20 23:30N 33°44' W 118°17'0 0.0
2017-Sep-20 23:00N 33°44' W 118°17'0 0.2
2017-Sep-20 21:53N 33°44' W 118°16'2 6.0
2017-Sep-20 21:30N 33°44' W 118°14'0 0.7
2017-Sep-20 21:00N 33°44' W 118°13'0 0.0
2017-Sep-20 20:30N 33°44' W 118°13'0 0.1
2017-Sep-20 19:59N 33°44' W 118°13'1 1.6
2017-Sep-20 19:30N 33°45' W 118°13'1 3.0
2017-Sep-20 19:00N 33°46' W 118°14'0 0.1
2017-Sep-20 18:30N 33°46' W 118°14'0 0.0
2017-Sep-20 18:00N 33°46' W 118°14'0 0.0
2017-Sep-20 17:30N 33°46' W 118°14'0 0.0
2017-Sep-20 17:00N 33°46' W 118°14'0 0.0
2017-Sep-20 16:30N 33°46' W 118°14'0 0.0
2017-Sep-20 15:59N 33°46' W 118°14'0 0.0
2017-Sep-20 15:30N 33°46' W 118°14'1 2.3
2017-Sep-20 14:55N 33°45' W 118°13'3 0.2
2017-Sep-19 20:05N 33°44' W 118°16'0 0.2
2017-Sep-19 19:59N 33°44' W 118°16'0 0.6
2017-Sep-19 19:29N 33°44' W 118°16'0 0.0
2017-Sep-19 19:00N 33°44' W 118°16'0 0.0
2017-Sep-19 18:28N 33°44' W 118°16'0 0.0
2017-Sep-19 17:59N 33°44' W 118°16'0 0.0
2017-Sep-19 17:30N 33°44' W 118°16'0 0.0
2017-Sep-19 16:58N 33°44' W 118°16'0 0.0
2017-Sep-19 16:30N 33°44' W 118°16'0 0.0
2017-Sep-19 15:59N 33°44' W 118°16'0 0.0
2017-Sep-19 15:26N 33°44' W 118°16'3 0.2
2017-Sep-19 00:15N 33°45' W 118°12'0 0.0
2017-Sep-18 23:57N 33°45' W 118°12'0 0.0
2017-Sep-18 21:47N 33°45' W 118°12'0 0.0
2017-Sep-18 21:29N 33°45' W 118°12'0 0.8
2017-Sep-18 21:00N 33°45' W 118°12'2 3.1
2017-Sep-18 20:30N 33°46' W 118°13'1 2.3
2017-Sep-18 20:00N 33°46' W 118°15'3 5.4
2017-Sep-18 19:30N 33°44' W 118°17'1 0.9
2017-Sep-18 18:56N 33°43' W 118°16'1 1.4
2017-Sep-18 18:30N 33°44' W 118°16'0 1.0
2017-Sep-18 18:00N 33°44' W 118°17'2 4.8
2017-Sep-18 17:30N 33°46' W 118°15'2 3.3
2017-Sep-18 16:58N 33°46' W 118°13'1 2.6
2017-Sep-18 16:29N 33°45' W 118°13'3 4.9
2017-Sep-18 15:55N 33°43' W 118°15'2 3.7
2017-Sep-18 15:30N 33°44' W 118°17'0 0.1
2017-Sep-18 14:58N 33°44' W 118°16'0 0.1
2017-Sep-18 14:30N 33°44' W 118°16'2 3.9
2017-Sep-18 13:58N 33°43' W 118°14'0 0.0
2017-Sep-18 09:35N 33°43' W 118°14'2 1.7
2017-Sep-18 08:21N 33°44' W 118°16'1 3.4
2017-Sep-18 08:00N 33°43' W 118°16'5 4.9
2017-Sep-18 07:06N 33°44' W 118°10'1 5.0
2017-Sep-18 06:51N 33°44' W 118°12'3 8.9
2017-Sep-18 06:30N 33°43' W 118°15'1 1.6
2017-Sep-18 05:48N 33°43' W 118°14'2 3.6
2017-Sep-18 05:20N 33°44' W 118°12'3 6.2
2017-Sep-18 04:50N 33°43' W 118°16'0 0.4
2017-Sep-18 04:22N 33°43' W 118°16'4 4.4
2017-Sep-18 03:25N 33°44' W 118°11'3 5.3
2017-Sep-18 02:47N 33°43' W 118°15'1 5.0
2017-Sep-18 02:30N 33°44' W 118°16'0 0.1
2017-Sep-18 00:13N 33°44' W 118°16'0 1.6
2017-Sep-18 00:00N 33°43' W 118°16'3 6.4
2017-Sep-17 23:30N 33°44' W 118°12'1 0.2
2017-Sep-17 18:48N 33°44' W 118°12'4 7.4
2017-Sep-17 18:18N 33°43' W 118°16'1 2.7
2017-Sep-17 18:00N 33°44' W 118°16'1 2.9
2017-Sep-17 17:30N 33°45' W 118°16'0 0.4
2017-Sep-17 16:58N 33°45' W 118°16'0 0.0
2017-Sep-17 16:27N 33°45' W 118°16'0 0.0
2017-Sep-17 16:00N 33°45' W 118°16'2 2.5
2017-Sep-17 15:22N 33°44' W 118°17'0 0.0
2017-Sep-17 15:00N 33°44' W 118°17'0 0.0
2017-Sep-17 14:26N 33°44' W 118°17'0 0.0
2017-Sep-17 13:51N 33°44' W 118°17'0 0.0
2017-Sep-17 13:16N 33°44' W 118°17'1 1.5
2017-Sep-17 12:20N 33°45' W 118°16'1 0.2
2017-Sep-17 04:58N 33°44' W 118°17'1 2.3
2017-Sep-17 04:30N 33°43' W 118°16'3 5.1
2017-Sep-17 03:59N 33°44' W 118°13'0 0.3
2017-Sep-17 03:28N 33°44' W 118°13'3 6.1
2017-Sep-17 02:58N 33°44' W 118°17'0 0.0
2017-Sep-17 02:28N 33°44' W 118°17'0 0.0
2017-Sep-17 01:58N 33°44' W 118°17'0 0.0
2017-Sep-17 01:25N 33°44' W 118°17'0 0.0
2017-Sep-17 01:00N 33°44' W 118°17'0 0.0
2017-Sep-17 00:29N 33°44' W 118°17'0 0.0
2017-Sep-17 00:00N 33°44' W 118°17'0 0.0
2017-Sep-16 23:31N 33°44' W 118°17'0 0.0
2017-Sep-16 22:58N 33°44' W 118°17'0 1.0
2017-Sep-16 22:30N 33°44' W 118°17'1 2.4
2017-Sep-16 21:54N 33°45' W 118°16'0 0.0
2017-Sep-16 21:29N 33°45' W 118°16'2 4.5
2017-Sep-16 21:00N 33°43' W 118°16'3 5.8
2017-Sep-16 20:30N 33°44' W 118°13'0 0.0
2017-Sep-16 19:57N 33°44' W 118°13'2 4.1
2017-Sep-16 19:30N 33°43' W 118°15'1 2.2
2017-Sep-16 19:00N 33°44' W 118°15'0 0.0
2017-Sep-16 18:25N 33°44' W 118°15'0 0.0
2017-Sep-16 18:00N 33°44' W 118°15'0 0.0
2017-Sep-16 17:30N 33°44' W 118°15'1 2.0
2017-Sep-16 17:00N 33°43' W 118°16'1 1.8
2017-Sep-16 16:27N 33°44' W 118°15'0 0.0
2017-Sep-16 16:00N 33°44' W 118°15'1 1.7
2017-Sep-16 15:24N 33°43' W 118°16'0 0.0
2017-Sep-16 02:16N 33°44' W 118°17'1 2.7
2017-Sep-16 01:59N 33°44' W 118°17'0 0.9
2017-Sep-16 01:30N 33°45' W 118°16'1 2.2
2017-Sep-16 00:58N 33°44' W 118°16'2 4.8
2017-Sep-16 00:30N 33°43' W 118°14'2 1.4
2017-Sep-15 22:48N 33°44' W 118°11'3 8.5
2017-Sep-15 22:29N 33°43' W 118°14'2 4.4
2017-Sep-15 21:59N 33°44' W 118°17'0 0.1
2017-Sep-15 21:30N 33°44' W 118°17'0 0.1
2017-Sep-15 21:00N 33°44' W 118°16'1 1.6
2017-Sep-15 20:30N 33°45' W 118°17'2 4.2
2017-Sep-15 19:57N 33°43' W 118°14'2 5.0
2017-Sep-15 19:28N 33°44' W 118°12'0 0.9
2017-Sep-15 18:57N 33°45' W 118°12'3 7.1
2017-Sep-15 18:29N 33°43' W 118°15'2 3.3
2017-Sep-15 18:00N 33°44' W 118°17'0 0.0
2017-Sep-15 17:30N 33°44' W 118°17'0 0.1
2017-Sep-15 16:58N 33°44' W 118°16'0 0.1
2017-Sep-15 16:30N 33°44' W 118°17'0 0.0
2017-Sep-15 16:00N 33°44' W 118°17'1 1.2
2017-Sep-15 15:30N 33°43' W 118°16'  

Dump ship's entire track history